createdAt,value
2022-08-07T00:14:50.801Z,15.79
2022-08-07T00:34:32.407Z,15.33
2022-08-07T00:54:37.683Z,14.87
2022-08-07T01:14:37.138Z,14.64
2022-08-07T01:35:53.029Z,14.63
2022-08-07T01:55:22.149Z,14.31
2022-08-07T02:15:05.973Z,13.99
2022-08-07T02:34:44.512Z,13.67
2022-08-07T02:53:54.763Z,13.42
2022-08-07T03:14:12.611Z,13.19
2022-08-07T03:34:06.938Z,12.99
2022-08-07T03:54:54.723Z,12.85
2022-08-07T04:14:38.299Z,12.83
2022-08-07T04:34:45.701Z,12.91
2022-08-07T04:58:09.280Z,13.22
2022-08-07T05:15:24.554Z,13.82
2022-08-07T05:34:35.897Z,14.87
2022-08-07T05:54:30.441Z,15.78
2022-08-07T06:14:20.794Z,16.33
2022-08-07T06:34:09.497Z,17.2
2022-08-07T06:55:30.608Z,18.13
2022-08-07T07:14:08.444Z,18.73
2022-08-07T07:35:06.221Z,19.12
2022-08-07T07:54:18.995Z,19.51
2022-08-07T08:15:16.148Z,19.84
2022-08-07T08:34:42.784Z,20.44
2022-08-07T08:54:48.698Z,20.82
2022-08-07T09:14:58.692Z,21.16
2022-08-07T09:35:04.362Z,22.03
2022-08-07T09:55:17.235Z,22.86
2022-08-07T10:16:05.236Z,24.74
2022-08-07T10:35:25.637Z,26.79
2022-08-07T10:55:45.001Z,27.91
2022-08-07T11:14:57.688Z,28.36
2022-08-07T11:35:25.260Z,28.8
2022-08-07T11:56:08.483Z,29.46
2022-08-07T12:15:36.004Z,30.44
2022-08-07T12:55:18.163Z,30.29
2022-08-07T13:13:49.670Z,30.9
2022-08-07T13:34:44.615Z,31.28
2022-08-07T13:55:25.755Z,31.3
2022-08-07T14:14:01.116Z,30.61
2022-08-07T14:34:32.810Z,29.37
2022-08-07T14:55:38.320Z,28.25
2022-08-07T15:14:31.827Z,27.93
2022-08-07T15:34:28.687Z,27.88
2022-08-07T15:55:03.777Z,27.39
2022-08-07T16:14:12.458Z,26.76
2022-08-07T16:35:50.546Z,26.33
2022-08-07T16:54:03.205Z,26
2022-08-07T17:15:44.057Z,25.54
2022-08-07T17:34:33.564Z,25.09
2022-08-07T17:55:04.361Z,24.69
2022-08-07T18:14:25.439Z,24.25
2022-08-07T18:34:37.258Z,23.69
2022-08-07T18:55:41.417Z,23.17
2022-08-07T19:14:53.442Z,22.64
2022-08-07T19:34:15.995Z,22.11
2022-08-07T19:54:44.815Z,21.58
2022-08-07T20:14:53.794Z,21.26
2022-08-07T20:35:32.087Z,21.07
2022-08-07T20:55:09.960Z,20.78
2022-08-07T21:15:47.410Z,20.57
2022-08-07T21:35:35.077Z,20.39
2022-08-07T21:54:04.560Z,20.2
2022-08-07T22:14:15.010Z,20.06
2022-08-07T22:34:35.929Z,19.92
2022-08-07T22:55:14.721Z,19.5
2022-08-07T23:14:47.638Z,18.96
2022-08-07T23:35:16.659Z,18.2
2022-08-07T23:54:28.572Z,17.41
